Time,TemperatureF,DewpointF,PressureIn,WindDirection,WindDirectionDegrees,WindSpeedMPH,WindSpeedGustMPH,Humidity,HourlyPrecipIn,Conditions,Clouds,dailyrainin,SolarRadiationWatts/m^2,SoftwareType,DateUTC
2013-05-18 00:02:00,81.0,71.0,-100.00,SSE,161,14.0,20.0,71,0.00,,,0.00,0.000000,,2013-05-18 05:02:00,
2013-05-18 00:32:00,80.0,71.0,-100.00,SSE,165,15.0,24.0,74,0.00,,,0.00,0.000000,,2013-05-18 05:32:00,
2013-05-18 00:42:00,80.0,71.0,-100.00,SSE,165,15.0,24.0,74,0.00,,,0.00,0.000000,,2013-05-18 05:42:00,
2013-05-18 00:52:00,80.0,71.0,-100.00,SSE,165,15.0,24.0,74,0.00,,,0.00,0.000000,,2013-05-18 05:52:00,
2013-05-18 01:02:00,80.0,71.0,-100.00,SSE,165,15.0,24.0,74,0.00,,,0.00,0.000000,,2013-05-18 06:02:00,
2013-05-18 01:32:00,78.0,70.0,-100.00,South,169,12.0,25.0,77,0.00,,,0.00,0.000000,,2013-05-18 06:32:00,
2013-05-18 01:42:00,78.0,70.0,-100.00,South,169,12.0,25.0,77,0.00,,,0.00,0.000000,,2013-05-18 06:42:00,
2013-05-18 01:52:00,78.0,70.0,-100.00,South,169,12.0,25.0,77,0.00,,,0.00,0.000000,,2013-05-18 06:52:00,
2013-05-18 02:01:00,78.0,70.0,-100.00,South,169,12.0,25.0,77,0.00,,,0.00,0.000000,,2013-05-18 07:01:00,
2013-05-18 02:32:00,76.0,69.0,-100.00,SSE,168,12.0,22.0,78,0.00,,,0.00,0.000000,,2013-05-18 07:32:00,
2013-05-18 02:43:00,76.0,69.0,-100.00,SSE,168,12.0,22.0,78,0.00,,,0.00,0.000000,,2013-05-18 07:43:00,
2013-05-18 02:52:00,76.0,69.0,-100.00,SSE,168,12.0,22.0,78,0.00,,,0.00,0.000000,,2013-05-18 07:52:00,
2013-05-18 03:01:00,76.0,69.0,-100.00,SSE,168,12.0,22.0,78,0.00,,,0.00,0.000000,,2013-05-18 08:01:00,
2013-05-18 03:33:00,76.0,69.0,-100.00,South,176,11.0,19.0,79,0.00,,,0.00,0.000000,,2013-05-18 08:33:00,
2013-05-18 03:42:00,76.0,69.0,-100.00,South,176,11.0,19.0,79,0.00,,,0.00,0.000000,,2013-05-18 08:42:00,
2013-05-18 03:52:00,76.0,69.0,-100.00,South,176,11.0,19.0,79,0.00,,,0.00,0.000000,,2013-05-18 08:52:00,
2013-05-18 04:02:00,76.0,69.0,-100.00,South,176,11.0,19.0,79,0.00,,,0.00,0.000000,,2013-05-18 09:02:00,
2013-05-18 04:33:00,74.0,67.0,-100.00,South,170,10.0,19.0,78,0.00,,,0.00,0.000000,,2013-05-18 09:33:00,
2013-05-18 04:43:00,74.0,67.0,-100.00,South,170,10.0,19.0,78,0.00,,,0.00,0.000000,,2013-05-18 09:43:00,
2013-05-18 04:53:00,74.0,67.0,-100.00,South,170,10.0,19.0,78,0.00,,,0.00,0.000000,,2013-05-18 09:53:00,
2013-05-18 05:03:00,74.0,67.0,-100.00,South,170,10.0,19.0,78,0.00,,,0.00,0.000000,,2013-05-18 10:03:00,
2013-05-18 05:33:00,74.0,67.0,-100.00,South,175,8.0,15.0,78,0.00,,,0.00,0.000000,,2013-05-18 10:33:00,
2013-05-18 05:42:00,74.0,67.0,-100.00,South,175,8.0,15.0,78,0.00,,,0.00,0.000000,,2013-05-18 10:42:00,
2013-05-18 05:53:00,74.0,67.0,-100.00,South,175,8.0,15.0,78,0.00,,,0.00,0.000000,,2013-05-18 10:53:00,
2013-05-18 06:03:00,74.0,67.0,-100.00,South,175,8.0,15.0,78,0.00,,,0.00,0.000000,,2013-05-18 11:03:00,
2013-05-18 06:33:00,74.0,66.0,-100.00,SSE,163,9.0,13.0,77,0.00,,,0.00,0.000000,,2013-05-18 11:33:00,
2013-05-18 06:42:00,74.0,66.0,-100.00,SSE,163,9.0,13.0,77,0.00,,,0.00,0.000000,,2013-05-18 11:42:00,
2013-05-18 06:52:00,74.0,66.0,-100.00,SSE,163,9.0,13.0,77,0.00,,,0.00,0.000000,,2013-05-18 11:52:00,
2013-05-18 07:01:00,74.0,66.0,-100.00,SSE,163,9.0,13.0,77,0.00,,,0.00,0.000000,,2013-05-18 12:01:00,
2013-05-18 07:33:00,73.0,67.0,-100.00,South,173,9.0,15.0,82,0.00,,,0.00,18.000000,,2013-05-18 12:33:00,
2013-05-18 07:42:00,73.0,67.0,-100.00,South,173,9.0,15.0,82,0.00,,,0.00,18.000000,,2013-05-18 12:42:00,
2013-05-18 07:52:00,73.0,67.0,-100.00,South,173,9.0,15.0,82,0.00,,,0.00,18.000000,,2013-05-18 12:52:00,
2013-05-18 08:01:00,73.0,67.0,-100.00,South,173,9.0,15.0,82,0.00,,,0.00,18.000000,,2013-05-18 13:01:00,
2013-05-18 08:33:00,72.0,67.0,-100.00,South,172,8.0,16.0,84,0.00,,,0.00,82.000000,,2013-05-18 13:33:00,
2013-05-18 08:43:00,72.0,67.0,-100.00,South,172,8.0,16.0,84,0.00,,,0.00,82.000000,,2013-05-18 13:43:00,
2013-05-18 08:53:00,72.0,67.0,-100.00,South,172,8.0,16.0,84,0.00,,,0.00,82.000000,,2013-05-18 13:53:00,
2013-05-18 09:03:00,72.0,67.0,-100.00,South,172,8.0,16.0,84,0.00,,,0.00,82.000000,,2013-05-18 14:03:00,
2013-05-18 09:33:00,77.0,70.0,-100.00,SSE,165,10.0,21.0,79,0.00,,,0.00,277.000000,,2013-05-18 14:33:00,
2013-05-18 09:42:00,77.0,70.0,-100.00,SSE,165,10.0,21.0,79,0.00,,,0.00,277.000000,,2013-05-18 14:42:00,
2013-05-18 09:54:00,77.0,70.0,-100.00,SSE,165,10.0,21.0,79,0.00,,,0.00,277.000000,,2013-05-18 14:54:00,
2013-05-18 10:03:00,77.0,70.0,-100.00,SSE,165,10.0,21.0,79,0.00,,,0.00,277.000000,,2013-05-18 15:03:00,
2013-05-18 10:33:00,80.0,71.0,-100.00,South,171,11.0,19.0,73,0.00,,,0.00,532.000000,,2013-05-18 15:33:00,
2013-05-18 10:43:00,80.0,71.0,-100.00,South,171,11.0,19.0,73,0.00,,,0.00,532.000000,,2013-05-18 15:43:00,
2013-05-18 10:53:00,80.0,71.0,-100.00,South,171,11.0,19.0,73,0.00,,,0.00,532.000000,,2013-05-18 15:53:00,
2013-05-18 11:02:00,80.0,71.0,-100.00,South,171,11.0,19.0,73,0.00,,,0.00,532.000000,,2013-05-18 16:02:00,
2013-05-18 11:33:00,83.0,71.0,-100.00,South,185,10.0,18.0,67,0.00,,,0.00,723.000000,,2013-05-18 16:33:00,
2013-05-18 11:42:00,83.0,71.0,-100.00,South,185,10.0,18.0,67,0.00,,,0.00,723.000000,,2013-05-18 16:42:00,
2013-05-18 11:52:00,83.0,71.0,-100.00,South,185,10.0,18.0,67,0.00,,,0.00,723.000000,,2013-05-18 16:52:00,
2013-05-18 12:02:00,83.0,71.0,-100.00,South,185,10.0,18.0,67,0.00,,,0.00,723.000000,,2013-05-18 17:02:00,
2013-05-18 12:33:00,86.0,70.0,-100.00,South,178,12.0,18.0,60,0.00,,,0.00,899.000000,,2013-05-18 17:33:00,
2013-05-18 12:42:00,86.0,70.0,-100.00,South,178,12.0,18.0,60,0.00,,,0.00,899.000000,,2013-05-18 17:42:00,
2013-05-18 12:52:00,86.0,70.0,-100.00,South,178,12.0,18.0,60,0.00,,,0.00,899.000000,,2013-05-18 17:52:00,
2013-05-18 13:01:00,86.0,70.0,-100.00,South,178,12.0,18.0,60,0.00,,,0.00,899.000000,,2013-05-18 18:01:00,
2013-05-18 13:32:00,88.0,70.0,-100.00,South,170,12.0,21.0,55,0.00,,,0.00,975.000000,,2013-05-18 18:32:00,
2013-05-18 13:42:00,88.0,70.0,-100.00,South,170,12.0,21.0,55,0.00,,,0.00,975.000000,,2013-05-18 18:42:00,
2013-05-18 13:52:00,88.0,70.0,-100.00,South,170,12.0,21.0,55,0.00,,,0.00,975.000000,,2013-05-18 18:52:00,
2013-05-18 14:02:00,88.0,70.0,-100.00,South,170,12.0,21.0,55,0.00,,,0.00,975.000000,,2013-05-18 19:02:00,
2013-05-18 14:32:00,90.0,70.0,-100.00,SSE,161,12.0,25.0,52,0.00,,,0.00,952.000000,,2013-05-18 19:32:00,
2013-05-18 14:42:00,90.0,70.0,-100.00,SSE,161,12.0,25.0,52,0.00,,,0.00,952.000000,,2013-05-18 19:42:00,
2013-05-18 14:52:00,90.0,70.0,-100.00,SSE,161,12.0,25.0,52,0.00,,,0.00,952.000000,,2013-05-18 19:52:00,
2013-05-18 15:02:00,90.0,70.0,-100.00,SSE,161,12.0,25.0,52,0.00,,,0.00,952.000000,,2013-05-18 20:02:00,
2013-05-18 15:32:00,91.0,70.0,-100.00,SSE,162,12.0,22.0,50,0.00,,,0.00,813.000000,,2013-05-18 20:32:00,
2013-05-18 15:42:00,91.0,70.0,-100.00,SSE,162,12.0,22.0,50,0.00,,,0.00,813.000000,,2013-05-18 20:42:00,
2013-05-18 15:52:00,91.0,70.0,-100.00,SSE,162,12.0,22.0,50,0.00,,,0.00,813.000000,,2013-05-18 20:52:00,
2013-05-18 16:01:00,91.0,70.0,-100.00,SSE,162,12.0,22.0,50,0.00,,,0.00,813.000000,,2013-05-18 21:01:00,
2013-05-18 16:33:00,92.0,71.0,-100.00,South,173,11.0,20.0,51,0.00,,,0.00,750.000000,,2013-05-18 21:33:00,
2013-05-18 16:44:00,92.0,71.0,-100.00,South,173,11.0,20.0,51,0.00,,,0.00,750.000000,,2013-05-18 21:44:00,
2013-05-18 16:53:00,92.0,71.0,-100.00,South,173,11.0,20.0,51,0.00,,,0.00,750.000000,,2013-05-18 21:53:00,
2013-05-18 17:03:00,92.0,71.0,-100.00,South,173,11.0,20.0,51,0.00,,,0.00,750.000000,,2013-05-18 22:03:00,
2013-05-18 17:33:00,91.0,69.0,-100.00,South,171,14.0,22.0,49,0.00,,,0.00,610.000000,,2013-05-18 22:33:00,
2013-05-18 17:42:00,91.0,69.0,-100.00,South,171,14.0,22.0,49,0.00,,,0.00,610.000000,,2013-05-18 22:42:00,
2013-05-18 17:53:00,91.0,69.0,-100.00,South,171,14.0,22.0,49,0.00,,,0.00,610.000000,,2013-05-18 22:53:00,
2013-05-18 18:01:00,91.0,69.0,-100.00,South,171,14.0,22.0,49,0.00,,,0.00,610.000000,,2013-05-18 23:01:00,
2013-05-18 18:32:00,89.0,71.0,-100.00,SSE,154,10.0,27.0,55,0.00,,,0.00,287.000000,,2013-05-18 23:32:00,
2013-05-18 18:42:00,89.0,71.0,-100.00,SSE,154,10.0,27.0,55,0.00,,,0.00,287.000000,,2013-05-18 23:42:00,
2013-05-18 18:53:00,89.0,71.0,-100.00,SSE,154,10.0,27.0,55,0.00,,,0.00,287.000000,,2013-05-18 23:53:00,
2013-05-18 19:01:00,89.0,71.0,-100.00,SSE,154,10.0,27.0,55,0.00,,,0.00,287.000000,,2013-05-19 00:01:00,
2013-05-18 20:32:00,86.0,70.0,-100.00,SSE,154,11.0,20.0,60,-99.99,,,0.00,64.000000,,2013-05-19 01:32:00,
2013-05-18 20:42:00,86.0,70.0,-100.00,SSE,154,11.0,20.0,60,-99.99,,,0.00,64.000000,,2013-05-19 01:42:00,
2013-05-18 20:52:00,86.0,70.0,-100.00,SSE,154,11.0,20.0,60,-99.99,,,0.00,64.000000,,2013-05-19 01:52:00,
2013-05-18 21:01:00,86.0,70.0,-100.00,SSE,154,11.0,20.0,60,-99.99,,,0.00,64.000000,,2013-05-19 02:01:00,
2013-05-18 21:32:00,84.0,68.0,-100.00,SSE,155,12.0,20.0,59,0.00,,,0.00,2.000000,,2013-05-19 02:32:00,
2013-05-18 21:42:00,84.0,68.0,-100.00,SSE,155,12.0,20.0,59,0.00,,,0.00,2.000000,,2013-05-19 02:42:00,
2013-05-18 21:52:00,84.0,68.0,-100.00,SSE,155,12.0,20.0,59,0.00,,,0.00,2.000000,,2013-05-19 02:52:00,
2013-05-18 22:01:00,84.0,68.0,-100.00,SSE,155,12.0,20.0,59,0.00,,,0.00,2.000000,,2013-05-19 03:01:00,
2013-05-18 22:33:00,82.0,66.0,-100.00,SSE,155,12.0,24.0,59,0.00,,,0.00,0.000000,,2013-05-19 03:33:00,
2013-05-18 22:43:00,82.0,66.0,-100.00,SSE,155,12.0,24.0,59,0.00,,,0.00,0.000000,,2013-05-19 03:43:00,
2013-05-18 22:53:00,82.0,66.0,-100.00,SSE,155,12.0,24.0,59,0.00,,,0.00,0.000000,,2013-05-19 03:53:00,
2013-05-18 23:02:00,82.0,66.0,-100.00,SSE,155,12.0,24.0,59,0.00,,,0.00,0.000000,,2013-05-19 04:02:00,
2013-05-18 23:33:00,81.0,66.0,-100.00,SSE,156,12.0,24.0,61,0.00,,,0.00,0.000000,,2013-05-19 04:33:00,
2013-05-18 23:42:00,81.0,66.0,-100.00,SSE,156,12.0,24.0,61,0.00,,,0.00,0.000000,,2013-05-19 04:42:00,
2013-05-18 23:53:00,81.0,66.0,-100.00,SSE,156,12.0,24.0,61,0.00,,,0.00,0.000000,,2013-05-19 04:53:00,